TimeCDT,TemperatureF,Dew PointF,Humidity,Sea Level PressureIn,VisibilityMPH,Wind Direction,Wind SpeedMPH,Gust SpeedMPH,PrecipitationIn,Events,Conditions,WindDirDegrees,DateUTC
12:10 AM,71.6,59.0,64,30.03,10.0,SE,11.5,-,N/A,,Clear,140,2014-05-30 05:10:00
12:50 AM,69.8,59.0,68,30.03,10.0,SE,11.5,-,N/A,,Clear,130,2014-05-30 05:50:00
1:10 AM,68.0,59.0,73,30.03,10.0,SE,11.5,-,N/A,,Clear,130,2014-05-30 06:10:00
1:30 AM,68.0,57.2,68,30.03,10.0,SE,10.4,-,N/A,,Clear,130,2014-05-30 06:30:00
1:50 AM,68.0,57.2,68,30.03,10.0,SE,11.5,-,N/A,,Clear,140,2014-05-30 06:50:00
2:10 AM,66.2,57.2,73,30.03,10.0,SE,11.5,-,N/A,,Clear,140,2014-05-30 07:10:00
2:30 AM,66.2,57.2,73,30.03,10.0,SE,12.7,17.3,N/A,,Clear,140,2014-05-30 07:30:00
2:50 AM,64.4,57.2,77,30.03,10.0,SE,10.4,-,N/A,,Clear,140,2014-05-30 07:50:00
3:10 AM,64.4,57.2,77,30.03,10.0,SE,11.5,-,N/A,,Clear,140,2014-05-30 08:10:00
3:50 AM,64.4,57.2,77,30.03,10.0,SSE,10.4,-,N/A,,Clear,150,2014-05-30 08:50:00
4:10 AM,64.4,57.2,77,30.03,10.0,SSE,11.5,-,N/A,,Clear,150,2014-05-30 09:10:00
4:30 AM,64.4,59.0,83,30.03,10.0,SE,10.4,-,N/A,,Clear,140,2014-05-30 09:30:00
4:50 AM,64.4,59.0,83,30.03,10.0,SE,10.4,-,N/A,,Scattered Clouds,140,2014-05-30 09:50:00
5:10 AM,64.4,59.0,83,30.02,10.0,SSE,12.7,-,N/A,,Clear,150,2014-05-30 10:10:00
5:30 AM,64.4,59.0,83,30.02,10.0,SSE,12.7,-,N/A,,Clear,150,2014-05-30 10:30:00
5:50 AM,64.4,59.0,83,30.02,10.0,SSE,13.8,-,N/A,,Clear,150,2014-05-30 10:50:00
6:10 AM,62.6,59.0,88,30.02,10.0,SE,10.4,-,N/A,,Clear,130,2014-05-30 11:10:00
6:30 AM,60.8,57.2,88,30.03,10.0,ESE,8.1,-,N/A,,Clear,120,2014-05-30 11:30:00
6:50 AM,62.6,59.0,88,30.03,10.0,East,5.8,-,N/A,,Clear,90,2014-05-30 11:50:00
7:10 AM,62.6,59.0,88,30.04,10.0,ESE,9.2,-,N/A,,Clear,120,2014-05-30 12:10:00
7:30 AM,64.4,59.0,83,30.04,10.0,SE,8.1,-,N/A,,Clear,130,2014-05-30 12:30:00
7:50 AM,66.2,59.0,78,30.05,10.0,SE,9.2,-,N/A,,Clear,140,2014-05-30 12:50:00
8:10 AM,68.0,60.8,78,30.06,10.0,SE,11.5,-,N/A,,Clear,140,2014-05-30 13:10:00
8:30 AM,69.8,60.8,73,30.06,10.0,SSE,12.7,-,N/A,,Scattered Clouds,150,2014-05-30 13:30:00
8:50 AM,71.6,60.8,69,30.07,10.0,SSE,15.0,-,N/A,,Scattered Clouds,150,2014-05-30 13:50:00
9:10 AM,73.4,60.8,65,30.07,10.0,SE,13.8,-,N/A,,Clear,130,2014-05-30 14:10:00
9:30 AM,75.2,60.8,61,30.07,10.0,SSE,15.0,-,N/A,,Clear,150,2014-05-30 14:30:00
9:50 AM,77.0,60.8,57,30.07,10.0,SSE,13.8,-,N/A,,Clear,150,2014-05-30 14:50:00
10:10 AM,78.8,60.8,54,30.07,10.0,SE,16.1,-,N/A,,Scattered Clouds,140,2014-05-30 15:10:00
10:30 AM,78.8,60.8,54,30.07,10.0,SE,17.3,24.2,N/A,,Scattered Clouds,130,2014-05-30 15:30:00
10:50 AM,80.6,60.8,51,30.07,10.0,SE,19.6,23.0,N/A,,Clear,140,2014-05-30 15:50:00
11:10 AM,82.4,60.8,48,30.06,10.0,SE,18.4,-,N/A,,Clear,140,2014-05-30 16:10:00
11:30 AM,82.4,60.8,48,30.06,10.0,SE,16.1,23.0,N/A,,Clear,140,2014-05-30 16:30:00
11:50 AM,82.4,59.0,45,30.06,10.0,SE,13.8,19.6,N/A,,Clear,130,2014-05-30 16:50:00
12:10 PM,84.2,59.0,42,30.06,10.0,SE,11.5,-,N/A,,Clear,140,2014-05-30 17:10:00
12:30 PM,86.0,59.0,40,30.05,10.0,SE,16.1,21.9,N/A,,Clear,140,2014-05-30 17:30:00
12:50 PM,86.0,59.0,40,30.05,10.0,ESE,15.0,19.6,N/A,,Clear,120,2014-05-30 17:50:00
1:10 PM,86.0,59.0,40,30.05,10.0,SE,12.7,21.9,N/A,,Clear,140,2014-05-30 18:10:00
1:30 PM,87.8,59.0,38,30.04,10.0,SSE,11.5,21.9,N/A,,Clear,150,2014-05-30 18:30:00
1:50 PM,82.4,57.2,42,30.03,10.0,SE,9.2,-,N/A,,Mostly Cloudy,140,2014-05-30 18:50:00
2:10 PM,84.2,57.2,40,30.03,10.0,ESE,11.5,23.0,N/A,,Overcast,120,2014-05-30 19:10:00
2:30 PM,84.2,57.2,40,30.02,10.0,ESE,12.7,-,N/A,,Overcast,110,2014-05-30 19:30:00
2:50 PM,87.8,57.2,35,30.02,10.0,ESE,11.5,18.4,N/A,,Scattered Clouds,120,2014-05-30 19:50:00
3:10 PM,86.0,55.4,35,30.02,10.0,ESE,15.0,-,N/A,,Mostly Cloudy,120,2014-05-30 20:10:00
3:30 PM,86.0,55.4,35,30.01,10.0,ESE,13.8,17.3,N/A,,Mostly Cloudy,120,2014-05-30 20:30:00
3:50 PM,86.0,55.4,35,30.00,10.0,East,17.3,-,N/A,,Mostly Cloudy,100,2014-05-30 20:50:00
4:10 PM,86.0,55.4,35,29.99,10.0,SE,18.4,21.9,N/A,,Mostly Cloudy,130,2014-05-30 21:10:00
4:30 PM,87.8,55.4,33,29.98,10.0,ESE,18.4,-,N/A,,Scattered Clouds,120,2014-05-30 21:30:00
4:50 PM,86.0,55.4,35,29.98,10.0,ESE,17.3,25.3,N/A,,Scattered Clouds,120,2014-05-30 21:50:00
5:10 PM,84.2,55.4,37,29.98,10.0,ESE,19.6,24.2,N/A,,Mostly Cloudy,120,2014-05-30 22:10:00
5:30 PM,84.2,53.6,35,29.98,10.0,SE,13.8,17.3,N/A,,Scattered Clouds,130,2014-05-30 22:30:00
5:50 PM,86.0,55.4,35,29.98,10.0,SE,13.8,20.7,N/A,,Scattered Clouds,140,2014-05-30 22:50:00
6:10 PM,86.0,55.4,35,29.98,10.0,SE,10.4,-,N/A,,Scattered Clouds,130,2014-05-30 23:10:00
6:30 PM,82.4,53.6,37,29.98,10.0,SE,13.8,-,N/A,,Clear,130,2014-05-30 23:30:00
7:10 PM,82.4,53.6,37,29.98,10.0,SE,13.8,-,N/A,,Mostly Cloudy,130,2014-05-31 00:10:00
7:30 PM,82.4,53.6,37,29.97,10.0,SE,12.7,-,N/A,,Scattered Clouds,130,2014-05-31 00:30:00
7:50 PM,80.6,53.6,39,29.97,10.0,SE,11.5,-,N/A,,Scattered Clouds,140,2014-05-31 00:50:00
8:10 PM,78.8,53.6,42,29.98,10.0,SE,12.7,-,N/A,,Clear,140,2014-05-31 01:10:00
8:50 PM,77.0,55.4,47,30.00,10.0,SE,11.5,-,N/A,,Mostly Cloudy,130,2014-05-31 01:50:00
9:10 PM,77.0,55.4,47,30.01,10.0,SE,11.5,-,N/A,,Overcast,130,2014-05-31 02:10:00
9:30 PM,75.2,57.2,53,30.01,10.0,SE,12.7,-,N/A,,Mostly Cloudy,130,2014-05-31 02:30:00
9:50 PM,73.4,57.2,57,30.02,10.0,SE,15.0,-,N/A,,Scattered Clouds,130,2014-05-31 02:50:00
10:10 PM,73.4,59.0,61,30.03,10.0,ESE,15.0,-,N/A,,Scattered Clouds,120,2014-05-31 03:10:00
10:30 PM,73.4,59.0,61,30.04,10.0,SE,17.3,-,N/A,,Scattered Clouds,130,2014-05-31 03:30:00
10:50 PM,73.4,59.0,61,30.04,10.0,SE,15.0,-,N/A,,Mostly Cloudy,130,2014-05-31 03:50:00
11:10 PM,73.4,60.8,65,30.05,10.0,SE,17.3,23.0,N/A,,Mostly Cloudy,130,2014-05-31 04:10:00
11:30 PM,73.4,60.8,65,30.05,10.0,SE,17.3,-,N/A,,Mostly Cloudy,130,2014-05-31 04:30:00
11:50 PM,73.4,60.8,65,30.08,10.0,Calm,Calm,-,N/A,,Overcast,0,2014-05-31 04:50:00